sensor_id;sensor_type;location;lat;lon;timestamp;pressure;altitude;pressure_sealevel;temperature;humidity
23953;BME280;12163;49.316;6.092;2023-03-03T00:01:13;99753.94;;;4.13;62.41
23953;BME280;12163;49.316;6.092;2023-03-03T00:03:41;99752.31;;;4.12;62.40
23953;BME280;12163;49.316;6.092;2023-03-03T00:06:10;99753.13;;;4.12;62.36
23953;BME280;12163;49.316;6.092;2023-03-03T00:08:37;99753.44;;;4.16;62.18
23953;BME280;12163;49.316;6.092;2023-03-03T00:11:04;99749.50;;;4.18;61.75
23953;BME280;12163;49.316;6.092;2023-03-03T00:13:46;99750.31;;;4.19;62.14
23953;BME280;12163;49.316;6.092;2023-03-03T00:18:48;99747.19;;;4.22;61.18
23953;BME280;12163;49.316;6.092;2023-03-03T00:21:26;99744.72;;;4.20;61.51
23953;BME280;12163;49.316;6.092;2023-03-03T00:24:13;99750.31;;;4.19;61.18
23953;BME280;12163;49.316;6.092;2023-03-03T00:26:54;99753.88;;;4.24;61.33
23953;BME280;12163;49.316;6.092;2023-03-03T00:29:34;99757.94;;;4.27;61.10
23953;BME280;12163;49.316;6.092;2023-03-03T00:34:41;99759.88;;;4.31;60.36
23953;BME280;12163;49.316;6.092;2023-03-03T00:37:34;99762.66;;;4.36;60.12
23953;BME280;12163;49.316;6.092;2023-03-03T00:40:24;99760.78;;;4.37;59.84
23953;BME280;12163;49.316;6.092;2023-03-03T00:42:57;99766.13;;;4.37;59.75
23953;BME280;12163;49.316;6.092;2023-03-03T00:45:28;99761.63;;;4.37;59.68
23953;BME280;12163;49.316;6.092;2023-03-03T00:47:56;99771.47;;;4.37;59.63
23953;BME280;12163;49.316;6.092;2023-03-03T00:50:32;99771.97;;;4.34;59.13
23953;BME280;12163;49.316;6.092;2023-03-03T00:53:12;99767.09;;;4.31;59.64
23953;BME280;12163;49.316;6.092;2023-03-03T00:55:39;99763.38;;;4.32;59.50
23953;BME280;12163;49.316;6.092;2023-03-03T00:58:06;99767.19;;;4.36;59.12
23953;BME280;12163;49.316;6.092;2023-03-03T01:00:33;99767.28;;;4.41;58.84
23953;BME280;12163;49.316;6.092;2023-03-03T01:03:05;99765.50;;;4.46;58.84
23953;BME280;12163;49.316;6.092;2023-03-03T01:05:33;99765.84;;;4.50;58.61
23953;BME280;12163;49.316;6.092;2023-03-03T01:08:00;99767.47;;;4.51;58.35
23953;BME280;12163;49.316;6.092;2023-03-03T01:10:29;99757.56;;;4.51;57.83
23953;BME280;12163;49.316;6.092;2023-03-03T01:12:57;99762.13;;;4.51;57.89
23953;BME280;12163;49.316;6.092;2023-03-03T01:15:23;99761.00;;;4.47;58.18
23953;BME280;12163;49.316;6.092;2023-03-03T01:17:50;99761.94;;;4.41;58.51
23953;BME280;12163;49.316;6.092;2023-03-03T01:20:17;99755.44;;;4.37;58.16
23953;BME280;12163;49.316;6.092;2023-03-03T01:22:43;99765.81;;;4.33;58.45
23953;BME280;12163;49.316;6.092;2023-03-03T01:25:10;99754.78;;;4.30;58.36
23953;BME280;12163;49.316;6.092;2023-03-03T01:27:37;99763.84;;;4.29;58.14
23953;BME280;12163;49.316;6.092;2023-03-03T01:30:05;99757.59;;;4.23;58.08
23953;BME280;12163;49.316;6.092;2023-03-03T01:32:32;99761.56;;;4.21;58.40
23953;BME280;12163;49.316;6.092;2023-03-03T01:34:59;99763.09;;;4.17;58.09
23953;BME280;12163;49.316;6.092;2023-03-03T01:37:26;99769.47;;;4.16;58.30
23953;BME280;12163;49.316;6.092;2023-03-03T01:39:53;99767.06;;;4.14;58.60
23953;BME280;12163;49.316;6.092;2023-03-03T01:42:20;99771.00;;;4.12;58.53
23953;BME280;12163;49.316;6.092;2023-03-03T01:44:47;99769.59;;;4.09;58.49
23953;BME280;12163;49.316;6.092;2023-03-03T01:47:20;99769.94;;;4.13;58.45
23953;BME280;12163;49.316;6.092;2023-03-03T01:49:56;99769.47;;;4.16;58.57
23953;BME280;12163;49.316;6.092;2023-03-03T01:55:19;99766.19;;;4.25;58.04
23953;BME280;12163;49.316;6.092;2023-03-03T01:57:54;99762.81;;;4.30;57.51
23953;BME280;12163;49.316;6.092;2023-03-03T02:00:25;99761.75;;;4.31;57.42
23953;BME280;12163;49.316;6.092;2023-03-03T02:02:53;99762.25;;;4.28;57.31
23953;BME280;12163;49.316;6.092;2023-03-03T02:05:20;99751.56;;;4.28;57.28
23953;BME280;12163;49.316;6.092;2023-03-03T02:07:47;99752.03;;;4.25;57.40
23953;BME280;12163;49.316;6.092;2023-03-03T02:10:16;99751.69;;;4.21;57.25
23953;BME280;12163;49.316;6.092;2023-03-03T02:12:50;99741.25;;;4.20;57.21
23953;BME280;12163;49.316;6.092;2023-03-03T02:15:26;99747.41;;;4.20;57.05
23953;BME280;12163;49.316;6.092;2023-03-03T02:17:55;99740.66;;;4.18;57.36
23953;BME280;12163;49.316;6.092;2023-03-03T02:20:38;99749.88;;;4.10;57.78
23953;BME280;12163;49.316;6.092;2023-03-03T02:28:30;99747.97;;;3.94;57.76
23953;BME280;12163;49.316;6.092;2023-03-03T02:30:58;99744.97;;;3.91;57.87
23953;BME280;12163;49.316;6.092;2023-03-03T02:33:26;99755.53;;;3.86;58.36
23953;BME280;12163;49.316;6.092;2023-03-03T02:35:53;99748.50;;;3.80;58.40
23953;BME280;12163;49.316;6.092;2023-03-03T02:44:13;99750.94;;;3.70;58.50
23953;BME280;12163;49.316;6.092;2023-03-03T02:46:45;99750.94;;;3.70;58.53
23953;BME280;12163;49.316;6.092;2023-03-03T02:49:16;99762.66;;;3.69;58.88
23953;BME280;12163;49.316;6.092;2023-03-03T02:51:43;99754.09;;;3.67;58.80
23953;BME280;12163;49.316;6.092;2023-03-03T02:54:11;99755.34;;;3.64;59.06
23953;BME280;12163;49.316;6.092;2023-03-03T02:56:39;99763.59;;;3.63;58.99
23953;BME280;12163;49.316;6.092;2023-03-03T02:59:05;99755.81;;;3.61;59.09
23953;BME280;12163;49.316;6.092;2023-03-03T03:01:32;99752.94;;;3.63;58.85
23953;BME280;12163;49.316;6.092;2023-03-03T03:04:08;99757.22;;;3.64;58.75
23953;BME280;12163;49.316;6.092;2023-03-03T03:06:35;99757.81;;;3.66;58.59
23953;BME280;12163;49.316;6.092;2023-03-03T03:09:03;99756.19;;;3.65;59.17
23953;BME280;12163;49.316;6.092;2023-03-03T03:11:29;99760.94;;;3.63;59.01
23953;BME280;12163;49.316;6.092;2023-03-03T03:13:56;99763.25;;;3.59;58.67
23953;BME280;12163;49.316;6.092;2023-03-03T03:16:23;99763.72;;;3.56;58.80
23953;BME280;12163;49.316;6.092;2023-03-03T03:18:50;99755.38;;;3.53;58.64
23953;BME280;12163;49.316;6.092;2023-03-03T03:21:17;99761.75;;;3.52;58.73
23953;BME280;12163;49.316;6.092;2023-03-03T03:23:43;99760.59;;;3.48;58.87
23953;BME280;12163;49.316;6.092;2023-03-03T03:26:11;99754.13;;;3.44;58.94
23953;BME280;12163;49.316;6.092;2023-03-03T03:28:37;99761.56;;;3.42;58.97
23953;BME280;12163;49.316;6.092;2023-03-03T03:31:05;99757.25;;;3.41;59.27
23953;BME280;12163;49.316;6.092;2023-03-03T03:33:32;99760.41;;;3.38;59.38
23953;BME280;12163;49.316;6.092;2023-03-03T03:35:59;99755.66;;;3.40;59.05
23953;BME280;12163;49.316;6.092;2023-03-03T03:38:27;99760.72;;;3.41;58.99
23953;BME280;12163;49.316;6.092;2023-03-03T03:40:55;99757.84;;;3.43;58.60
23953;BME280;12163;49.316;6.092;2023-03-03T03:43:21;99764.56;;;3.45;58.75
23953;BME280;12163;49.316;6.092;2023-03-03T03:45:48;99769.31;;;3.43;58.81
23953;BME280;12163;49.316;6.092;2023-03-03T03:48:16;99771.06;;;3.38;58.81
23953;BME280;12163;49.316;6.092;2023-03-03T03:50:42;99773.97;;;3.36;58.62
23953;BME280;12163;49.316;6.092;2023-03-03T03:53:09;99773.63;;;3.33;59.01
23953;BME280;12163;49.316;6.092;2023-03-03T03:55:36;99771.41;;;3.30;59.06
23953;BME280;12163;49.316;6.092;2023-03-03T03:58:02;99776.63;;;3.25;59.14
23953;BME280;12163;49.316;6.092;2023-03-03T04:00:29;99772.59;;;3.23;59.23
23953;BME280;12163;49.316;6.092;2023-03-03T04:02:56;99776.53;;;3.20;59.27
23953;BME280;12163;49.316;6.092;2023-03-03T04:05:22;99778.63;;;3.18;59.41
23953;BME280;12163;49.316;6.092;2023-03-03T04:07:49;99783.38;;;3.16;59.55
23953;BME280;12163;49.316;6.092;2023-03-03T04:10:16;99779.09;;;3.15;59.48
23953;BME280;12163;49.316;6.092;2023-03-03T04:12:43;99777.47;;;3.14;59.27
23953;BME280;12163;49.316;6.092;2023-03-03T04:15:11;99784.63;;;3.14;59.73
23953;BME280;12163;49.316;6.092;2023-03-03T04:17:39;99783.00;;;3.13;59.58
23953;BME280;12163;49.316;6.092;2023-03-03T04:20:06;99776.41;;;3.15;59.81
23953;BME280;12163;49.316;6.092;2023-03-03T04:22:33;99783.38;;;3.16;59.42
23953;BME280;12163;49.316;6.092;2023-03-03T04:25:05;99782.91;;;3.19;59.34
23953;BME280;12163;49.316;6.092;2023-03-03T04:27:35;99782.06;;;3.19;59.38
23953;BME280;12163;49.316;6.092;2023-03-03T04:30:04;99785.00;;;3.17;59.58
23953;BME280;12163;49.316;6.092;2023-03-03T04:32:31;99785.56;;;3.19;59.80
23953;BME280;12163;49.316;6.092;2023-03-03T04:34:59;99787.66;;;3.17;59.70
23953;BME280;12163;49.316;6.092;2023-03-03T04:37:33;99781.75;;;3.15;59.79
23953;BME280;12163;49.316;6.092;2023-03-03T04:40:00;99775.84;;;3.13;59.43
23953;BME280;12163;49.316;6.092;2023-03-03T04:42:27;99783.00;;;3.13;59.47
23953;BME280;12163;49.316;6.092;2023-03-03T04:44:54;99785.91;;;3.11;59.59
23953;BME280;12163;49.316;6.092;2023-03-03T04:47:20;99784.28;;;3.10;59.52
23953;BME280;12163;49.316;6.092;2023-03-03T04:49:47;99787.97;;;3.09;59.64
23953;BME280;12163;49.316;6.092;2023-03-03T04:52:14;99788.44;;;3.06;59.73
23953;BME280;12163;49.316;6.092;2023-03-03T04:54:40;99794.50;;;3.02;59.76
23953;BME280;12163;49.316;6.092;2023-03-03T04:57:07;99797.94;;;3.02;60.15
23953;BME280;12163;49.316;6.092;2023-03-03T04:59:34;99799.00;;;3.01;60.09
23953;BME280;12163;49.316;6.092;2023-03-03T05:02:02;99796.69;;;3.05;60.25
23953;BME280;12163;49.316;6.092;2023-03-03T05:04:30;99799.56;;;3.03;60.29
23953;BME280;12163;49.316;6.092;2023-03-03T05:06:57;99789.38;;;3.00;60.32
23953;BME280;12163;49.316;6.092;2023-03-03T05:09:24;99794.72;;;3.00;60.46
23953;BME280;12163;49.316;6.092;2023-03-03T05:11:50;99794.72;;;3.00;60.46
23953;BME280;12163;49.316;6.092;2023-03-03T05:14:17;99795.88;;;3.04;60.36
23953;BME280;12163;49.316;6.092;2023-03-03T05:16:44;99786.94;;;3.10;60.36
23953;BME280;12163;49.316;6.092;2023-03-03T05:19:10;99792.63;;;3.14;60.30
23953;BME280;12163;49.316;6.092;2023-03-03T05:21:37;99790.06;;;3.19;60.22
23953;BME280;12163;49.316;6.092;2023-03-03T05:24:09;99793.09;;;3.22;59.34
23953;BME280;12163;49.316;6.092;2023-03-03T05:26:36;99796.34;;;3.24;59.87
23953;BME280;12163;49.316;6.092;2023-03-03T05:29:03;99806.44;;;3.22;59.63
23953;BME280;12163;49.316;6.092;2023-03-03T05:31:30;99795.78;;;3.22;59.48
23953;BME280;12163;49.316;6.092;2023-03-03T05:33:56;99797.59;;;3.22;59.54
23953;BME280;12163;49.316;6.092;2023-03-03T05:36:24;99802.59;;;3.18;59.14
23953;BME280;12163;49.316;6.092;2023-03-03T05:38:50;99807.38;;;3.16;59.72
23953;BME280;12163;49.316;6.092;2023-03-03T05:41:17;99801.47;;;3.14;59.73
23953;BME280;12163;49.316;6.092;2023-03-03T05:43:44;99799.25;;;3.11;59.59
23953;BME280;12163;49.316;6.092;2023-03-03T05:46:11;99800.25;;;3.10;59.56
23953;BME280;12163;49.316;6.092;2023-03-03T05:48:37;99800.72;;;3.07;60.21
23953;BME280;12163;49.316;6.092;2023-03-03T05:51:04;99801.19;;;3.04;60.01
23953;BME280;12163;49.316;6.092;2023-03-03T05:53:31;99813.94;;;3.02;60.13
23953;BME280;12163;49.316;6.092;2023-03-03T05:55:57;99810.69;;;3.00;60.06
23953;BME280;12163;49.316;6.092;2023-03-03T05:58:24;99812.31;;;3.01;60.59
23953;BME280;12163;49.316;6.092;2023-03-03T06:00:51;99812.91;;;3.15;62.17
23953;BME280;12163;49.316;6.092;2023-03-03T06:03:17;99817.59;;;3.93;64.19
23953;BME280;12163;49.316;6.092;2023-03-03T06:05:44;99806.72;;;4.78;63.04
23953;BME280;12163;49.316;6.092;2023-03-03T06:08:11;99808.94;;;5.52;61.49
23953;BME280;12163;49.316;6.092;2023-03-03T06:10:37;99815.06;;;5.85;57.38
23953;BME280;12163;49.316;6.092;2023-03-03T06:13:04;99817.00;;;5.73;56.71
23953;BME280;12163;49.316;6.092;2023-03-03T06:15:30;99824.31;;;5.78;57.42
23953;BME280;12163;49.316;6.092;2023-03-03T06:17:57;99823.34;;;5.84;56.57
23953;BME280;12163;49.316;6.092;2023-03-03T06:20:24;99827.56;;;5.80;56.10
23953;BME280;12163;49.316;6.092;2023-03-03T06:22:50;99826.00;;;5.46;55.60
23953;BME280;12163;49.316;6.092;2023-03-03T06:25:17;99831.00;;;5.09;56.12
23953;BME280;12163;49.316;6.092;2023-03-03T06:27:44;99843.97;;;4.85;56.69
23953;BME280;12163;49.316;6.092;2023-03-03T06:30:11;99846.19;;;4.60;56.80
23953;BME280;12163;49.316;6.092;2023-03-03T06:32:38;99854.84;;;4.39;56.95
23953;BME280;12163;49.316;6.092;2023-03-03T06:35:05;99857.38;;;4.17;57.15
23953;BME280;12163;49.316;6.092;2023-03-03T06:37:32;99859.16;;;4.00;57.44
23953;BME280;12163;49.316;6.092;2023-03-03T06:39:58;99861.25;;;3.87;58.01
23953;BME280;12163;49.316;6.092;2023-03-03T06:42:26;99861.03;;;3.77;58.40
23953;BME280;12163;49.316;6.092;2023-03-03T06:44:52;99863.03;;;3.70;58.72
23953;BME280;12163;49.316;6.092;2023-03-03T06:47:19;99868.25;;;3.65;58.29
23953;BME280;12163;49.316;6.092;2023-03-03T06:49:45;99865.47;;;3.60;58.79
23953;BME280;12163;49.316;6.092;2023-03-03T06:52:25;99874.63;;;3.52;58.66
23953;BME280;12163;49.316;6.092;2023-03-03T06:54:54;99877.53;;;3.51;59.01
23953;BME280;12163;49.316;6.092;2023-03-03T06:57:30;99873.94;;;3.45;59.10
23953;BME280;12163;49.316;6.092;2023-03-03T07:00:09;99885.19;;;3.47;59.23
23953;BME280;12163;49.316;6.092;2023-03-03T07:02:39;99887.03;;;3.47;59.45
23953;BME280;12163;49.316;6.092;2023-03-03T07:05:11;99887.03;;;3.47;59.21
23953;BME280;12163;49.316;6.092;2023-03-03T07:07:39;99889.69;;;3.47;59.33
23953;BME280;12163;49.316;6.092;2023-03-03T07:10:15;99901.41;;;3.46;59.18
23953;BME280;12163;49.316;6.092;2023-03-03T07:12:43;99898.53;;;3.47;59.46
23953;BME280;12163;49.316;6.092;2023-03-03T07:15:17;99892.38;;;3.47;59.58
23953;BME280;12163;49.316;6.092;2023-03-03T07:17:48;99904.44;;;3.49;59.48
23953;BME280;12163;49.316;6.092;2023-03-03T07:20:23;99907.69;;;3.51;59.40
23953;BME280;12163;49.316;6.092;2023-03-03T07:22:50;99902.56;;;3.50;59.33
23953;BME280;12163;49.316;6.092;2023-03-03T07:25:30;99905.50;;;3.48;59.43
23953;BME280;12163;49.316;6.092;2023-03-03T07:28:10;99908.16;;;3.48;59.59
23953;BME280;12163;49.316;6.092;2023-03-03T07:30:41;99918.13;;;3.53;59.96
23953;BME280;12163;49.316;6.092;2023-03-03T07:33:18;99910.69;;;3.55;59.84
23953;BME280;12163;49.316;6.092;2023-03-03T07:35:45;99911.88;;;3.59;60.02
23953;BME280;12163;49.316;6.092;2023-03-03T07:40:51;99924.06;;;3.66;59.48
23953;BME280;12163;49.316;6.092;2023-03-03T07:46:14;99913.72;;;3.70;59.57
23953;BME280;12163;49.316;6.092;2023-03-03T07:48:43;99921.84;;;3.75;59.72
23953;BME280;12163;49.316;6.092;2023-03-03T07:51:37;99919.75;;;3.77;59.55
23953;BME280;12163;49.316;6.092;2023-03-03T07:56:46;99935.31;;;3.91;59.75
23953;BME280;12163;49.316;6.092;2023-03-03T07:59:20;99934.59;;;3.96;59.56
23953;BME280;12163;49.316;6.092;2023-03-03T08:01:52;99947.63;;;4.04;59.38
23953;BME280;12163;49.316;6.092;2023-03-03T08:04:36;99938.19;;;4.13;59.42
23953;BME280;12163;49.316;6.092;2023-03-03T08:07:16;99936.19;;;4.20;59.51
23953;BME280;12163;49.316;6.092;2023-03-03T08:09:51;99937.97;;;4.26;59.43
23953;BME280;12163;49.316;6.092;2023-03-03T08:12:40;99934.00;;;4.28;59.16
23953;BME280;12163;49.316;6.092;2023-03-03T08:15:19;99936.31;;;4.36;59.27
23953;BME280;12163;49.316;6.092;2023-03-03T08:17:47;99937.09;;;4.48;58.99
23953;BME280;12163;49.316;6.092;2023-03-03T08:20:48;99936.13;;;4.54;58.73
23953;BME280;12163;49.316;6.092;2023-03-03T08:23:17;99932.41;;;4.67;59.10
23953;BME280;12163;49.316;6.092;2023-03-03T08:25:44;99943.84;;;4.79;58.90
23953;BME280;12163;49.316;6.092;2023-03-03T08:28:12;99947.75;;;4.88;58.45
23953;BME280;12163;49.316;6.092;2023-03-03T08:30:39;99942.63;;;4.97;58.32
23953;BME280;12163;49.316;6.092;2023-03-03T08:33:06;99939.66;;;5.10;58.10
23953;BME280;12163;49.316;6.092;2023-03-03T08:35:32;99947.28;;;5.18;57.98
23953;BME280;12163;49.316;6.092;2023-03-03T08:37:59;99951.16;;;5.27;57.83
23953;BME280;12163;49.316;6.092;2023-03-03T08:40:26;99944.88;;;5.33;57.54
23953;BME280;12163;49.316;6.092;2023-03-03T08:42:53;99957.59;;;5.43;57.28
23953;BME280;12163;49.316;6.092;2023-03-03T08:45:20;99955.09;;;5.53;57.16
23953;BME280;12163;49.316;6.092;2023-03-03T08:47:46;99955.03;;;5.64;57.18
23953;BME280;12163;49.316;6.092;2023-03-03T08:50:13;99962.06;;;5.70;56.80
23953;BME280;12163;49.316;6.092;2023-03-03T08:52:40;99950.53;;;5.81;57.03
23953;BME280;12163;49.316;6.092;2023-03-03T08:55:07;99956.75;;;5.87;56.47
23953;BME280;12163;49.316;6.092;2023-03-03T08:57:34;99949.09;;;5.95;56.44
23953;BME280;12163;49.316;6.092;2023-03-03T09:00:01;99950.56;;;6.03;56.30
23953;BME280;12163;49.316;6.092;2023-03-03T09:02:27;99933.25;;;6.10;56.03
23953;BME280;12163;49.316;6.092;2023-03-03T09:04:54;99946.00;;;6.20;55.92
23953;BME280;12163;49.316;6.092;2023-03-03T09:07:20;99945.31;;;6.29;55.44
23953;BME280;12163;49.316;6.092;2023-03-03T09:09:47;99932.47;;;6.31;55.63
23953;BME280;12163;49.316;6.092;2023-03-03T09:12:20;99937.97;;;6.41;55.31
23953;BME280;12163;49.316;6.092;2023-03-03T09:14:49;99941.53;;;6.47;54.92
23953;BME280;12163;49.316;6.092;2023-03-03T09:17:31;99935.66;;;6.50;55.12
23953;BME280;12163;49.316;6.092;2023-03-03T09:20:14;99937.09;;;6.57;54.69
23953;BME280;12163;49.316;6.092;2023-03-03T09:22:43;99937.16;;;6.62;54.65
23953;BME280;12163;49.316;6.092;2023-03-03T09:27:52;99950.56;;;6.62;54.54
23953;BME280;12163;49.316;6.092;2023-03-03T09:30:33;99959.81;;;6.71;54.90
23953;BME280;12163;49.316;6.092;2023-03-03T09:33:18;99960.22;;;6.84;54.67
23953;BME280;12163;49.316;6.092;2023-03-03T09:35:49;99953.66;;;6.97;54.12
23953;BME280;12163;49.316;6.092;2023-03-03T09:38:30;99960.75;;;7.08;53.57
23953;BME280;12163;49.316;6.092;2023-03-03T09:43:48;99962.13;;;7.37;53.29
23953;BME280;12163;49.316;6.092;2023-03-03T09:46:49;99963.31;;;7.51;52.47
23953;BME280;12163;49.316;6.092;2023-03-03T09:52:29;99966.16;;;7.66;51.79
23953;BME280;12163;49.316;6.092;2023-03-03T10:00:46;99967.28;;;7.75;52.05
23953;BME280;12163;49.316;6.092;2023-03-03T10:03:47;99971.09;;;7.79;51.92
23953;BME280;12163;49.316;6.092;2023-03-03T10:06:45;99967.91;;;7.82;52.08
23953;BME280;12163;49.316;6.092;2023-03-03T10:09:36;99971.19;;;7.94;52.13
23953;BME280;12163;49.316;6.092;2023-03-03T10:15:04;99963.34;;;8.19;52.05
23953;BME280;12163;49.316;6.092;2023-03-03T10:22:55;99965.69;;;8.46;51.10
23953;BME280;12163;49.316;6.092;2023-03-03T10:36:59;99963.13;;;8.76;50.21
23953;BME280;12163;49.316;6.092;2023-03-03T10:49:44;99975.59;;;9.02;49.51
23953;BME280;12163;49.316;6.092;2023-03-03T10:55:22;99983.44;;;9.14;48.58
23953;BME280;12163;49.316;6.092;2023-03-03T10:58:27;99977.81;;;9.25;48.37
23953;BME280;12163;49.316;6.092;2023-03-03T11:01:04;99985.09;;;9.25;48.11
23953;BME280;12163;49.316;6.092;2023-03-03T11:08:43;99978.34;;;9.22;47.56
23953;BME280;12163;49.316;6.092;2023-03-03T11:14:22;99976.22;;;9.39;47.47
23953;BME280;12163;49.316;6.092;2023-03-03T11:22:28;99977.34;;;9.63;46.80
23953;BME280;12163;49.316;6.092;2023-03-03T11:30:51;99963.84;;;9.93;46.59
23953;BME280;12163;49.316;6.092;2023-03-03T11:33:42;99962.25;;;10.07;46.43
23953;BME280;12163;49.316;6.092;2023-03-03T11:39:02;99942.53;;;10.26;46.17
23953;BME280;12163;49.316;6.092;2023-03-03T11:41:40;99940.06;;;10.40;45.38
23953;BME280;12163;49.316;6.092;2023-03-03T11:47:03;99930.25;;;10.64;45.21
23953;BME280;12163;49.316;6.092;2023-03-03T11:54:41;99935.03;;;10.87;44.54
23953;BME280;12163;49.316;6.092;2023-03-03T12:00:02;99936.59;;;10.98;43.19
23953;BME280;12163;49.316;6.092;2023-03-03T12:02:54;99933.56;;;11.09;43.73
23953;BME280;12163;49.316;6.092;2023-03-03T12:05:37;99925.69;;;11.18;42.75
23953;BME280;12163;49.316;6.092;2023-03-03T12:11:15;99912.63;;;11.30;42.80
23953;BME280;12163;49.316;6.092;2023-03-03T12:25:36;99905.91;;;11.66;42.45
23953;BME280;12163;49.316;6.092;2023-03-03T12:28:19;99905.25;;;11.78;42.03
23953;BME280;12163;49.316;6.092;2023-03-03T12:31:03;99901.66;;;11.88;42.01
23953;BME280;12163;49.316;6.092;2023-03-03T12:44:30;99902.25;;;12.08;42.35
23953;BME280;12163;49.316;6.092;2023-03-03T12:49:41;99900.81;;;12.39;42.06
23953;BME280;12163;49.316;6.092;2023-03-03T12:52:30;99892.69;;;12.39;42.05
23953;BME280;12163;49.316;6.092;2023-03-03T12:55:03;99888.03;;;12.45;41.91
23953;BME280;12163;49.316;6.092;2023-03-03T13:00:18;99896.81;;;12.37;41.08
23953;BME280;12163;49.316;6.092;2023-03-03T13:03:12;99895.09;;;12.22;41.31
23953;BME280;12163;49.316;6.092;2023-03-03T13:09:02;99889.09;;;12.25;41.34
23953;BME280;12163;49.316;6.092;2023-03-03T13:19:53;99883.72;;;12.67;42.33
23953;BME280;12163;49.316;6.092;2023-03-03T13:23:03;99878.34;;;12.62;41.15
23953;BME280;12163;49.316;6.092;2023-03-03T13:25:54;99882.38;;;12.41;41.43
23953;BME280;12163;49.316;6.092;2023-03-03T13:31:38;99879.47;;;12.38;42.23
23953;BME280;12163;49.316;6.092;2023-03-03T13:34:36;99873.66;;;12.49;42.03
23953;BME280;12163;49.316;6.092;2023-03-03T13:37:36;99880.38;;;12.52;41.92
23953;BME280;12163;49.316;6.092;2023-03-03T13:40:20;99878.22;;;12.72;42.48
23953;BME280;12163;49.316;6.092;2023-03-03T13:48:51;99879.94;;;13.05;41.53
23953;BME280;12163;49.316;6.092;2023-03-03T14:00:29;99860.94;;;14.60;39.39
23953;BME280;12163;49.316;6.092;2023-03-03T14:05:44;99853.69;;;14.69;38.06
23953;BME280;12163;49.316;6.092;2023-03-03T14:08:34;99853.34;;;14.84;38.84
23953;BME280;12163;49.316;6.092;2023-03-03T14:16:58;99837.03;;;15.32;37.20
23953;BME280;12163;49.316;6.092;2023-03-03T14:19:34;99835.72;;;15.52;35.95
23953;BME280;12163;49.316;6.092;2023-03-03T14:22:14;99838.66;;;15.64;36.95
23953;BME280;12163;49.316;6.092;2023-03-03T14:27:38;99826.72;;;15.73;35.34
23953;BME280;12163;49.316;6.092;2023-03-03T14:38:13;99830.44;;;16.16;34.43
23953;BME280;12163;49.316;6.092;2023-03-03T14:40:42;99833.66;;;16.57;33.78
23953;BME280;12163;49.316;6.092;2023-03-03T14:43:23;99826.50;;;16.87;32.20
23953;BME280;12163;49.316;6.092;2023-03-03T14:45:54;99814.97;;;16.98;32.06
23953;BME280;12163;49.316;6.092;2023-03-03T14:48:23;99813.19;;;17.19;31.72
23953;BME280;12163;49.316;6.092;2023-03-03T14:50:55;99813.84;;;17.16;30.76
23953;BME280;12163;49.316;6.092;2023-03-03T14:53:49;99796.84;;;17.10;30.54
23953;BME280;12163;49.316;6.092;2023-03-03T14:56:22;99806.97;;;17.10;30.58
23953;BME280;12163;49.316;6.092;2023-03-03T14:58:51;99804.69;;;16.95;30.25
23953;BME280;12163;49.316;6.092;2023-03-03T15:01:20;99796.69;;;16.90;29.99
23953;BME280;12163;49.316;6.092;2023-03-03T15:04:00;99797.31;;;17.04;30.02
23953;BME280;12163;49.316;6.092;2023-03-03T15:06:36;99801.50;;;17.10;29.48
23953;BME280;12163;49.316;6.092;2023-03-03T15:11:53;99801.31;;;17.23;28.43
23953;BME280;12163;49.316;6.092;2023-03-03T15:14:38;99802.13;;;17.07;28.92
23953;BME280;12163;49.316;6.092;2023-03-03T15:19:46;99794.75;;;17.33;29.28
23953;BME280;12163;49.316;6.092;2023-03-03T15:22:24;99796.31;;;17.51;27.34
23953;BME280;12163;49.316;6.092;2023-03-03T15:25:22;99794.44;;;17.34;28.32
23953;BME280;12163;49.316;6.092;2023-03-03T15:30:29;99798.75;;;17.44;29.29
23953;BME280;12163;49.316;6.092;2023-03-03T15:36:03;99793.03;;;17.83;28.55
23953;BME280;12163;49.316;6.092;2023-03-03T15:38:52;99804.47;;;17.76;27.22
23953;BME280;12163;49.316;6.092;2023-03-03T15:46:58;99795.03;;;17.57;28.47
23953;BME280;12163;49.316;6.092;2023-03-03T15:52:35;99790.34;;;17.74;27.42
23953;BME280;12163;49.316;6.092;2023-03-03T15:58:34;99789.03;;;17.80;27.25
23953;BME280;12163;49.316;6.092;2023-03-03T16:01:25;99790.81;;;17.68;26.59
23953;BME280;12163;49.316;6.092;2023-03-03T16:03:57;99795.19;;;17.60;26.44
23953;BME280;12163;49.316;6.092;2023-03-03T16:06:36;99798.56;;;17.49;26.71
23953;BME280;12163;49.316;6.092;2023-03-03T16:14:39;99805.47;;;15.53;28.48
23953;BME280;12163;49.316;6.092;2023-03-03T16:20:42;99815.09;;;14.45;29.87
23953;BME280;12163;49.316;6.092;2023-03-03T16:23:10;99821.59;;;13.90;30.12
23953;BME280;12163;49.316;6.092;2023-03-03T16:31:22;99836.69;;;13.00;31.19
23953;BME280;12163;49.316;6.092;2023-03-03T16:39:34;99837.47;;;12.40;32.04
23953;BME280;12163;49.316;6.092;2023-03-03T16:47:41;99851.53;;;11.95;32.88
23953;BME280;12163;49.316;6.092;2023-03-03T17:06:39;99877.84;;;11.18;33.85
23953;BME280;12163;49.316;6.092;2023-03-03T17:15:09;99887.78;;;10.89;34.70
23953;BME280;12163;49.316;6.092;2023-03-03T17:17:48;99889.72;;;10.79;34.96
23953;BME280;12163;49.316;6.092;2023-03-03T17:28:36;99909.31;;;10.41;35.91
23953;BME280;12163;49.316;6.092;2023-03-03T17:47:57;99939.06;;;9.76;38.33
23953;BME280;12163;49.316;6.092;2023-03-03T18:08:27;99967.75;;;8.96;41.41
23953;BME280;12163;49.316;6.092;2023-03-03T18:19:27;99981.94;;;8.71;42.49
23953;BME280;12163;49.316;6.092;2023-03-03T18:22:10;99980.81;;;8.62;42.59
23953;BME280;12163;49.316;6.092;2023-03-03T18:25:00;99981.56;;;8.53;42.88
23953;BME280;12163;49.316;6.092;2023-03-03T18:27:32;99988.28;;;8.50;43.85
23953;BME280;12163;49.316;6.092;2023-03-03T18:30:25;99992.28;;;8.43;44.53
23953;BME280;12163;49.316;6.092;2023-03-03T18:38:26;99997.81;;;8.27;45.16
23953;BME280;12163;49.316;6.092;2023-03-03T18:43:49;100002.81;;;8.13;45.17
23953;BME280;12163;49.316;6.092;2023-03-03T19:02:07;100024.69;;;7.64;48.69
23953;BME280;12163;49.316;6.092;2023-03-03T19:04:42;100027.03;;;7.55;48.77
23953;BME280;12163;49.316;6.092;2023-03-03T19:12:55;100035.88;;;7.29;49.79
23953;BME280;12163;49.316;6.092;2023-03-03T19:18:24;100048.06;;;7.15;50.92